createdAt,value
2022-09-02T09:37:59.325Z,18.30
2022-09-02T09:40:32.218Z,18.30
2022-09-02T09:43:14.694Z,18.50
2022-09-02T09:45:49.127Z,18.70
2022-09-02T09:48:30.095Z,18.50
2022-09-02T09:50:56.788Z,18.50
2022-09-02T09:53:26.713Z,18.90
2022-09-02T09:55:54.775Z,19.00
2022-09-02T09:58:23.574Z,19.30
2022-09-02T10:00:56.242Z,19.50
2022-09-02T10:03:33.114Z,19.70
2022-09-02T10:06:19.064Z,19.40
2022-09-02T10:08:54.970Z,19.30
2022-09-02T10:11:27.728Z,19.40
2022-09-02T10:14:00.093Z,19.30
2022-09-02T10:16:47.988Z,19.40
2022-09-02T10:19:23.800Z,19.10
2022-09-02T10:22:38.458Z,19.30
2022-09-02T10:25:33.282Z,19.20
2022-09-02T10:28:24.180Z,19.00
2022-09-02T10:30:59.934Z,19.20
2022-09-02T10:33:45.734Z,19.30
2022-09-02T10:36:32.711Z,19.40
2022-09-02T10:39:15.040Z,19.50
2022-09-02T10:41:48.418Z,19.20
2022-09-02T10:44:39.549Z,19.20
2022-09-02T10:47:30.705Z,19.50
2022-09-02T10:50:34.874Z,19.80
2022-09-02T10:53:36.309Z,19.70
2022-09-02T10:56:11.186Z,19.30
2022-09-02T10:58:52.338Z,19.60
2022-09-02T11:01:52.465Z,19.80
2022-09-02T11:04:25.024Z,20.10
2022-09-02T11:07:02.598Z,20.30
2022-09-02T11:09:58.331Z,20.20
2022-09-02T11:12:36.134Z,20.10
2022-09-02T11:15:03.684Z,20.10
2022-09-02T11:17:47.139Z,20.10
2022-09-02T11:20:22.820Z,20.00
2022-09-02T11:23:23.412Z,20.20
2022-09-02T11:26:04.143Z,20.60
2022-09-02T11:28:49.898Z,20.80
2022-09-02T11:31:26.218Z,20.90
2022-09-02T11:36:33.262Z,20.60
2022-09-02T11:39:05.520Z,20.80
2022-09-02T11:41:35.815Z,20.70
2022-09-02T11:44:14.719Z,20.80
2022-09-02T11:47:25.656Z,20.90
2022-09-02T11:50:19.650Z,21.00
2022-09-02T11:52:52.200Z,21.10
2022-09-02T11:56:02.377Z,21.40
2022-09-02T11:58:36.631Z,21.50
2022-09-02T12:01:16.672Z,21.80
2022-09-02T12:07:10.037Z,22.00
2022-09-02T12:09:56.704Z,22.10
2022-09-02T12:12:38.970Z,21.50
2022-09-02T12:15:06.328Z,21.00
2022-09-02T12:17:37.978Z,21.20
2022-09-02T12:20:11.270Z,21.20
2022-09-02T12:22:40.011Z,21.10
2022-09-02T12:25:27.359Z,21.00
2022-09-02T12:28:31.296Z,21.20
2022-09-02T12:31:17.814Z,21.60
2022-09-02T12:33:51.541Z,21.80
2022-09-02T12:36:41.431Z,22.30
2022-09-02T12:39:23.520Z,22.60
2022-09-02T12:42:11.315Z,22.90
2022-09-02T12:45:28.710Z,23.00
2022-09-02T12:48:12.437Z,22.30
2022-09-02T12:50:53.777Z,21.70
2022-09-02T12:53:23.518Z,21.40
2022-09-02T12:56:04.331Z,21.80
2022-09-02T12:58:42.910Z,22.00
2022-09-02T13:01:41.625Z,21.90
2022-09-02T13:04:30.674Z,21.60
2022-09-02T13:07:26.645Z,21.50
2022-09-02T13:10:32.043Z,21.70
2022-09-02T13:13:23.468Z,21.80
2022-09-02T13:16:21.138Z,21.60
2022-09-02T13:19:09.045Z,21.90
2022-09-02T13:22:06.700Z,22.10
2022-09-02T13:25:07.817Z,22.20
2022-09-02T13:27:53.196Z,21.60
2022-09-02T13:30:44.511Z,21.60
2022-09-02T13:33:12.264Z,22.20
2022-09-02T13:35:40.790Z,22.00
2022-09-02T13:38:12.398Z,22.00
2022-09-02T13:40:40.196Z,22.20
2022-09-02T13:43:12.959Z,22.20
2022-09-02T13:45:40.217Z,21.80
2022-09-02T13:48:21.757Z,21.80
2022-09-02T13:50:51.375Z,21.50
2022-09-02T13:54:11.613Z,21.60
2022-09-02T13:56:25.591Z,22.00
2022-09-02T13:58:56.647Z,21.90
2022-09-02T14:01:30.739Z,21.80
2022-09-02T14:04:00.264Z,21.90
2022-09-02T14:06:31.129Z,21.90
2022-09-02T14:09:01.423Z,21.80
2022-09-02T14:11:39.432Z,21.60
2022-09-02T14:14:06.843Z,21.70
2022-09-02T14:16:37.380Z,21.70
2022-09-02T14:19:22.390Z,21.60
2022-09-02T14:21:56.128Z,22.00
2022-09-02T14:24:26.848Z,22.10
2022-09-02T14:26:55.607Z,22.30
2022-09-02T14:29:23.280Z,22.70
2022-09-02T14:32:20.883Z,22.70
2022-09-02T14:34:48.912Z,22.70
2022-09-02T14:37:15.816Z,22.60
2022-09-02T14:40:12.611Z,22.70
2022-09-02T14:42:49.646Z,21.90
2022-09-02T14:45:29.454Z,21.80
2022-09-02T14:47:59.349Z,21.60
2022-09-02T14:50:36.522Z,21.60
2022-09-02T14:53:09.402Z,21.70
2022-09-02T14:55:50.001Z,21.70
2022-09-02T14:58:17.427Z,22.10
2022-09-02T15:00:56.611Z,22.50
2022-09-02T15:03:24.374Z,22.80
2022-09-02T15:05:52.352Z,22.90
2022-09-02T15:08:19.661Z,22.80
2022-09-02T15:10:46.895Z,22.70
2022-09-02T15:13:35.424Z,22.70
2022-09-02T15:16:03.387Z,22.70
2022-09-02T15:18:30.365Z,22.10
2022-09-02T15:20:57.650Z,22.20
2022-09-02T15:23:24.858Z,22.40
2022-09-02T15:25:53.857Z,22.60
2022-09-02T15:28:21.206Z,22.60
2022-09-02T15:30:48.062Z,22.30
2022-09-02T15:33:16.721Z,22.10
2022-09-02T15:35:46.609Z,21.70
2022-09-02T15:38:13.350Z,21.30
2022-09-02T15:40:40.099Z,21.40
2022-09-02T15:43:06.839Z,21.80
2022-09-02T15:45:33.607Z,22.10
2022-09-02T15:48:00.428Z,22.10
2022-09-02T15:50:32.022Z,22.10
2022-09-02T15:52:58.740Z,21.90
2022-09-02T15:55:29.255Z,22.00
2022-09-02T15:57:56.698Z,22.10
2022-09-02T16:00:28.584Z,21.50
2022-09-02T16:02:57.039Z,21.20
2022-09-02T16:05:24.267Z,21.00
2022-09-02T16:07:52.101Z,20.90
2022-09-02T16:10:18.930Z,20.80
2022-09-02T16:12:45.785Z,20.70
2022-09-02T16:15:12.524Z,20.70
2022-09-02T16:17:39.266Z,20.80
2022-09-02T16:20:06.439Z,21.00
2022-09-02T16:22:33.349Z,20.90
2022-09-02T16:25:01.822Z,20.90
2022-09-02T16:27:47.316Z,20.60
2022-09-02T16:30:14.075Z,20.50
2022-09-02T16:32:40.798Z,20.40
2022-09-02T16:35:08.554Z,20.30
2022-09-02T16:37:35.333Z,20.20
2022-09-02T16:40:03.651Z,20.20
2022-09-02T16:42:33.818Z,20.00
2022-09-02T16:45:04.060Z,19.80
2022-09-02T16:47:31.783Z,19.80
2022-09-02T16:49:58.563Z,20.00
2022-09-02T16:52:25.270Z,20.10
2022-09-02T16:54:51.995Z,20.20
2022-09-02T16:57:18.774Z,20.40
2022-09-02T16:59:45.515Z,20.70
2022-09-02T17:02:12.315Z,20.70
2022-09-02T17:04:39.213Z,20.70
2022-09-02T17:07:05.981Z,20.70
2022-09-02T17:09:32.765Z,20.70
2022-09-02T17:11:59.506Z,20.70
2022-09-02T17:14:26.299Z,20.70
2022-09-02T17:16:53.194Z,20.60
2022-09-02T17:19:26.209Z,20.60
2022-09-02T17:21:55.478Z,20.50
2022-09-02T17:24:24.828Z,20.40
2022-09-02T17:26:55.797Z,20.30
2022-09-02T17:32:11.235Z,20.20
2022-09-02T17:34:37.991Z,20.10
2022-09-02T17:37:05.326Z,20.00
2022-09-02T17:39:33.955Z,19.90
2022-09-02T17:42:01.827Z,19.90
2022-09-02T17:44:38.380Z,19.80
2022-09-02T17:47:20.592Z,19.70
2022-09-02T17:49:47.589Z,19.60
2022-09-02T17:52:19.626Z,19.50
2022-09-02T17:54:48.614Z,19.50
2022-09-02T17:57:42.959Z,19.30
2022-09-02T18:00:21.091Z,19.30
2022-09-02T18:03:10.863Z,19.10
2022-09-02T18:05:46.184Z,18.70
2022-09-02T18:08:26.289Z,18.40
2022-09-02T18:10:58.080Z,18.40
2022-09-02T18:13:41.181Z,18.20
2022-09-02T18:16:29.895Z,18.10
2022-09-02T18:19:38.026Z,18.10
2022-09-02T18:22:30.903Z,17.90
2022-09-02T18:25:03.991Z,17.80
2022-09-02T18:27:58.828Z,17.50
2022-09-02T18:30:39.679Z,17.30
2022-09-02T18:33:18.292Z,17.30
2022-09-02T18:35:56.123Z,17.40
2022-09-02T18:39:01.211Z,17.40
2022-09-02T18:41:58.652Z,17.40
2022-09-02T18:44:58.356Z,17.40
2022-09-02T18:47:28.985Z,17.30
2022-09-02T18:49:58.715Z,17.30
2022-09-02T18:52:28.041Z,17.20
2022-09-02T18:55:02.040Z,17.10
2022-09-02T18:57:36.675Z,17.00
2022-09-02T19:00:09.892Z,16.90
2022-09-02T19:03:03.610Z,16.80
2022-09-02T19:05:33.086Z,16.80
2022-09-02T19:08:28.003Z,16.80
2022-09-02T19:11:01.016Z,16.80
2022-09-02T19:14:06.057Z,16.50
2022-09-02T19:16:34.822Z,16.30
2022-09-02T19:19:01.752Z,16.10
2022-09-02T19:21:44.856Z,16.00
2022-09-02T19:24:21.366Z,16.00
2022-09-02T19:26:49.170Z,16.00
2022-09-02T19:29:17.311Z,16.00
2022-09-02T19:31:46.649Z,16.00
2022-09-02T19:34:14.324Z,15.90
2022-09-02T19:36:43.897Z,15.80
2022-09-02T19:39:10.627Z,15.70
2022-09-02T19:41:37.372Z,15.50
2022-09-02T19:44:04.139Z,15.40
2022-09-02T19:49:17.620Z,15.40
2022-09-02T19:51:44.375Z,15.20
2022-09-02T19:54:14.061Z,15.00
2022-09-02T19:56:41.216Z,15.00
2022-09-02T19:59:08.620Z,15.00
2022-09-02T20:01:36.308Z,15.00
2022-09-02T20:04:05.940Z,15.00
2022-09-02T20:06:33.001Z,15.00
2022-09-02T20:08:59.761Z,15.00
2022-09-02T20:11:27.832Z,15.00
2022-09-02T20:13:55.743Z,14.70
2022-09-02T20:16:25.833Z,14.60
2022-09-02T20:18:53.918Z,14.50
2022-09-02T20:21:51.695Z,14.40
2022-09-02T20:24:25.241Z,14.40
2022-09-02T20:27:25.035Z,14.40
2022-09-02T20:29:58.947Z,14.30
2022-09-02T20:32:53.226Z,14.20
2022-09-02T20:35:24.379Z,14.10
2022-09-02T20:38:07.883Z,14.00
2022-09-02T20:41:10.898Z,14.00
2022-09-02T20:43:58.155Z,14.10
2022-09-02T20:46:49.634Z,14.10
2022-09-02T20:49:36.072Z,14.10
2022-09-02T20:52:21.618Z,14.10
2022-09-02T20:54:56.864Z,14.10
2022-09-02T20:57:41.917Z,14.20
2022-09-02T21:00:14.494Z,14.20
2022-09-02T21:02:56.399Z,13.90
2022-09-02T21:05:29.053Z,13.80
2022-09-02T21:08:06.302Z,13.80
2022-09-02T21:10:43.026Z,13.70
2022-09-02T21:13:19.272Z,13.70
2022-09-02T21:15:55.941Z,13.70
2022-09-02T21:18:44.399Z,13.60
2022-09-02T21:21:34.330Z,13.60
2022-09-02T21:24:14.140Z,13.70
2022-09-02T21:27:03.627Z,13.70
2022-09-02T21:29:42.108Z,13.70
2022-09-02T21:32:17.875Z,13.70
